Terminal Aerodrome Forecast
Issued by NWS Bismarck, ND

Home | Current Version | Previous Version | Graphics & Text | Print | Product List | Glossary On
Versions: 1 2 3 4 5 6 7 8 9 10 11 12 13 14
000
FTUS43 KBIS 302320
TAFISN
TAF
KISN 302320Z 3100/3124 13011G18KT P6SM SCT250
     FM310600 11009KT P6SM VCTS BKN100CB
     FM311000 12009KT P6SM BKN150
     FM311800 14015G21KT P6SM SCT250=

USA.gov is the U.S. government's official web portal to all federal, state and local government web resources and services.